Time;durP1;ratioP1;P1;durP2;ratioP2;P2;SDS_P1;SDS_P2;PMS_P1;PMS_P2;Temp;Humidity;BMP_temperature;BMP_pressure;BME280_temperature;BME280_humidity;BME280_pressure;Samples;Min_cycle;Max_cycle;Signal;HPM_P1;HPM_P2
2021/12/10 00:00:22;;;;;;;28.23;12.75;;;;;;;;;;5012750;28;97441;-74
2021/12/10 00:02:48;;;;;;;28.08;12.02;;;;;;;;;;5012045;28;96513;-74
2021/12/10 00:05:27;;;;;;;32.00;12.63;;;;;;;;;;5013640;28;96796;-74
2021/12/10 00:07:55;;;;;;;29.85;12.23;;;;;;;;;;5013177;28;97242;-74
2021/12/10 00:10:24;;;;;;;40.13;13.02;;;;;;;;;;5011860;28;95222;-75
2021/12/10 00:12:51;;;;;;;30.92;12.48;;;;;;;;;;5012928;28;96960;-74
2021/12/10 00:15:20;;;;;;;31.60;11.95;;;;;;;;;;5012517;28;97737;-74
2021/12/10 00:17:47;;;;;;;35.15;12.85;;;;;;;;;;5015348;28;95258;-74
2021/12/10 00:20:13;;;;;;;34.75;12.35;;;;;;;;;;5012285;28;97328;-75
2021/12/10 00:22:45;;;;;;;25.95;12.23;;;;;;;;;;5012289;28;95224;-74
2021/12/10 00:25:17;;;;;;;29.77;12.60;;;;;;;;;;5012108;28;96892;-75
2021/12/10 00:27:44;;;;;;;35.97;13.10;;;;;;;;;;5012934;28;97222;-74
2021/12/10 00:30:13;;;;;;;36.25;13.57;;;;;;;;;;5010699;28;95319;-74
2021/12/10 00:32:43;;;;;;;31.65;13.23;;;;;;;;;;5012325;28;96722;-74
2021/12/10 00:35:12;;;;;;;39.45;13.65;;;;;;;;;;5012471;28;97243;-74
2021/12/10 00:37:38;;;;;;;28.05;13.85;;;;;;;;;;5012214;28;95138;-74
2021/12/10 00:40:07;;;;;;;33.08;14.65;;;;;;;;;;5015668;28;97306;-74
2021/12/10 00:42:34;;;;;;;30.08;13.40;;;;;;;;;;5012396;28;95205;-75
2021/12/10 00:45:02;;;;;;;33.92;14.07;;;;;;;;;;5011154;28;96844;-75
2021/12/10 00:47:29;;;;;;;30.05;14.20;;;;;;;;;;5011273;28;97554;-74
2021/12/10 00:49:55;;;;;;;34.80;14.50;;;;;;;;;;5012379;28;96269;-74
2021/12/10 00:52:22;;;;;;;39.42;14.55;;;;;;;;;;5011507;28;96843;-74
2021/12/10 00:54:49;;;;;;;33.25;14.35;;;;;;;;;;5012310;28;97263;-74
2021/12/10 00:57:16;;;;;;;30.05;14.00;;;;;;;;;;5010739;28;95434;-75
2021/12/10 00:59:43;;;;;;;42.40;16.02;;;;;;;;;;5011274;28;96804;-74
2021/12/10 01:02:11;;;;;;;35.00;16.02;;;;;;;;;;5014757;28;97434;-75
2021/12/10 01:04:40;;;;;;;33.42;15.23;;;;;;;;;;5012370;28;96872;-74
2021/12/10 01:07:09;;;;;;;27.60;14.50;;;;;;;;;;5011487;28;97298;-75
2021/12/10 01:09:37;;;;;;;31.45;15.73;;;;;;;;;;5011628;28;95953;-75
2021/12/10 01:12:17;;;;;;;36.58;14.82;;;;;;;;;;5011185;28;96997;-75
2021/12/10 01:15:20;;;;;;;32.85;15.70;;;;;;;;;;5010915;28;97259;-74
2021/12/10 01:26:24;;;;;;;30.65;13.27;;;;;;;;;;5014071;28;95212;-74
2021/12/10 01:28:53;;;;;;;36.10;14.68;;;;;;;;;;5010420;28;97301;-75
2021/12/10 01:31:20;;;;;;;24.90;13.73;;;;;;;;;;5011004;28;96637;-74
2021/12/10 01:33:48;;;;;;;28.75;13.63;;;;;;;;;;5011326;28;96763;-74
2021/12/10 01:36:15;;;;;;;35.13;13.57;;;;;;;;;;5012053;28;96248;-74
2021/12/10 01:38:43;;;;;;;28.20;13.55;;;;;;;;;;5015047;28;95341;-74
2021/12/10 01:41:13;;;;;;;29.13;13.43;;;;;;;;;;4995044;28;96778;-74
2021/12/10 01:43:40;;;;;;;31.88;13.55;;;;;;;;;;5000076;28;97342;-74
2021/12/10 01:46:10;;;;;;;33.72;14.40;;;;;;;;;;5015215;28;95205;-75
2021/12/10 01:48:41;;;;;;;27.08;12.85;;;;;;;;;;5017591;28;96919;-74
2021/12/10 01:51:09;;;;;;;25.42;12.60;;;;;;;;;;5015301;28;95356;-74
2021/12/10 01:53:38;;;;;;;23.80;12.65;;;;;;;;;;5015139;28;96874;-74
2021/12/10 01:56:07;;;;;;;30.83;12.75;;;;;;;;;;5014395;28;97274;-74
2021/12/10 01:58:33;;;;;;;30.17;13.23;;;;;;;;;;5014926;28;95698;-74
2021/12/10 02:01:03;;;;;;;25.58;12.32;;;;;;;;;;5015833;28;96769;-74
2021/12/10 02:03:30;;;;;;;27.33;13.20;;;;;;;;;;5012709;28;97235;-74
2021/12/10 02:05:56;;;;;;;27.70;12.60;;;;;;;;;;5015225;28;95254;-74
2021/12/10 02:08:23;;;;;;;26.15;13.02;;;;;;;;;;5016980;28;96876;-75
2021/12/10 02:10:49;;;;;;;28.08;12.40;;;;;;;;;;5015146;28;95392;-74
2021/12/10 02:13:15;;;;;;;25.67;12.27;;;;;;;;;;5014181;28;97226;-74
2021/12/10 02:15:42;;;;;;;25.85;12.35;;;;;;;;;;5013692;28;97339;-75
2021/12/10 02:18:10;;;;;;;27.23;12.07;;;;;;;;;;5014478;28;95336;-74
2021/12/10 02:20:46;;;;;;;27.35;11.18;;;;;;;;;;5015013;28;96791;-74
2021/12/10 02:23:12;;;;;;;25.55;11.57;;;;;;;;;;5012876;28;97800;-75
2021/12/10 02:25:38;;;;;;;32.58;11.23;;;;;;;;;;5014204;28;95316;-74
2021/12/10 02:28:06;;;;;;;26.48;11.68;;;;;;;;;;5015044;28;96956;-74
2021/12/10 02:30:32;;;;;;;31.60;11.77;;;;;;;;;;5017477;28;97278;-75
2021/12/10 02:32:59;;;;;;;27.75;10.57;;;;;;;;;;5014219;28;96774;-75
2021/12/10 02:35:26;;;;;;;25.83;10.77;;;;;;;;;;5011960;28;96277;-75
2021/12/10 02:37:53;;;;;;;24.25;10.05;;;;;;;;;;5013830;28;95915;-75
2021/12/10 02:40:21;;;;;;;25.15;10.45;;;;;;;;;;5008903;28;97005;-73
2021/12/10 02:42:48;;;;;;;18.70;10.32;;;;;;;;;;5004106;28;97367;-75
2021/12/10 02:45:16;;;;;;;23.13;10.00;;;;;;;;;;5013671;28;95154;-74
2021/12/10 02:47:43;;;;;;;23.48;10.55;;;;;;;;;;5002597;28;97263;-74
2021/12/10 02:50:11;;;;;;;20.25;10.27;;;;;;;;;;4992923;28;96858;-75
2021/12/10 02:52:37;;;;;;;22.52;9.73;;;;;;;;;;4997703;28;95433;-74
2021/12/10 02:55:05;;;;;;;22.40;10.05;;;;;;;;;;5013485;28;95985;-75
2021/12/10 02:57:31;;;;;;;21.98;9.73;;;;;;;;;;5012335;28;95458;-74
2021/12/10 02:59:58;;;;;;;19.88;9.40;;;;;;;;;;5014591;28;96865;-74
2021/12/10 03:02:27;;;;;;;20.73;9.35;;;;;;;;;;5014019;28;97346;-74
2021/12/10 03:04:53;;;;;;;21.30;9.02;;;;;;;;;;5011735;28;96599;-75
2021/12/10 03:07:22;;;;;;;22.13;9.18;;;;;;;;;;5011795;28;96902;-74
2021/12/10 03:09:50;;;;;;;25.13;9.15;;;;;;;;;;5014199;28;97055;-74
2021/12/10 03:12:18;;;;;;;24.30;9.05;;;;;;;;;;5013535;28;95685;-74
2021/12/10 03:14:46;;;;;;;16.25;9.15;;;;;;;;;;5017156;28;96599;-75
2021/12/10 03:17:15;;;;;;;24.55;9.45;;;;;;;;;;5013082;28;95435;-74
2021/12/10 03:19:41;;;;;;;19.75;8.18;;;;;;;;;;5014001;28;97178;-74
2021/12/10 03:22:08;;;;;;;21.35;8.73;;;;;;;;;;5007178;28;97371;-75
2021/12/10 03:24:34;;;;;;;19.98;8.32;;;;;;;;;;5012081;28;95432;-74
2021/12/10 03:27:03;;;;;;;19.55;7.68;;;;;;;;;;5011703;28;96919;-73
2021/12/10 03:29:31;;;;;;;16.92;7.57;;;;;;;;;;5013017;28;97554;-73
2021/12/10 03:32:01;;;;;;;15.27;6.50;;;;;;;;;;5014003;28;95249;-73
2021/12/10 03:34:27;;;;;;;16.77;6.78;;;;;;;;;;5013543;28;96786;-74
2021/12/10 03:36:54;;;;;;;15.77;6.75;;;;;;;;;;5003638;28;97613;-73
2021/12/10 03:39:22;;;;;;;17.10;6.53;;;;;;;;;;4996278;28;96901;-73
2021/12/10 03:41:48;;;;;;;21.20;5.70;;;;;;;;;;5013262;28;97459;-74
2021/12/10 03:44:15;;;;;;;11.88;5.30;;;;;;;;;;5012262;28;95687;-74
2021/12/10 03:46:42;;;;;;;11.02;5.60;;;;;;;;;;5012037;28;96844;-74
2021/12/10 03:49:08;;;;;;;13.48;4.95;;;;;;;;;;5013437;28;97564;-73
2021/12/10 03:51:35;;;;;;;18.40;5.55;;;;;;;;;;5014066;28;95430;-75
2021/12/10 03:54:04;;;;;;;14.35;5.18;;;;;;;;;;5012664;28;97181;-74
2021/12/10 03:56:30;;;;;;;13.43;5.30;;;;;;;;;;5013096;28;98714;-74
2021/12/10 03:58:59;;;;;;;16.05;5.60;;;;;;;;;;5016287;28;95021;-74
2021/12/10 04:01:27;;;;;;;13.30;5.55;;;;;;;;;;5012415;28;97394;-74
2021/12/10 04:03:54;;;;;;;8.57;5.15;;;;;;;;;;5013630;28;95407;-74
2021/12/10 04:06:20;;;;;;;15.93;5.80;;;;;;;;;;5012955;28;97057;-75
2021/12/10 04:08:47;;;;;;;10.57;4.90;;;;;;;;;;5012763;28;97031;-74
2021/12/10 04:11:16;;;;;;;12.60;6.00;;;;;;;;;;5013123;28;95399;-74
2021/12/10 04:13:44;;;;;;;15.55;5.35;;;;;;;;;;4993392;28;96644;-74
2021/12/10 04:16:10;;;;;;;15.77;5.00;;;;;;;;;;4997310;28;97249;-74
2021/12/10 04:18:37;;;;;;;13.30;5.55;;;;;;;;;;5016248;28;95399;-74
2021/12/10 04:21:09;;;;;;;14.32;5.47;;;;;;;;;;5012987;28;97808;-74
2021/12/10 04:23:35;;;;;;;12.63;5.50;;;;;;;;;;5012505;28;95290;-74
2021/12/10 04:26:02;;;;;;;10.82;4.70;;;;;;;;;;5013210;28;96690;-74
2021/12/10 04:28:29;;;;;;;10.50;4.93;;;;;;;;;;5012691;28;97310;-74
2021/12/10 04:30:55;;;;;;;12.70;4.75;;;;;;;;;;5013315;28;96583;-75
2021/12/10 04:33:23;;;;;;;15.45;5.07;;;;;;;;;;5012405;28;96949;-74
2021/12/10 04:35:51;;;;;;;16.83;5.03;;;;;;;;;;5012786;28;97389;-74
2021/12/10 04:38:18;;;;;;;11.68;4.65;;;;;;;;;;5012094;28;95372;-75
2021/12/10 04:40:47;;;;;;;9.98;4.60;;;;;;;;;;5012004;28;96832;-74
2021/12/10 04:43:15;;;;;;;12.50;4.50;;;;;;;;;;5011986;28;95064;-74
2021/12/10 04:45:41;;;;;;;11.48;3.95;;;;;;;;;;5013021;28;96954;-74
2021/12/10 04:48:07;;;;;;;10.48;4.45;;;;;;;;;;5012166;28;97364;-75
2021/12/10 04:50:34;;;;;;;9.68;4.35;;;;;;;;;;5012048;28;95336;-74
2021/12/10 04:53:00;;;;;;;10.70;4.25;;;;;;;;;;5012405;28;96862;-74
2021/12/10 04:55:27;;;;;;;13.88;4.57;;;;;;;;;;5012177;28;97319;-74
2021/12/10 04:57:53;;;;;;;13.98;5.10;;;;;;;;;;5011667;28;95397;-74
2021/12/10 05:00:23;;;;;;;10.77;4.53;;;;;;;;;;5011487;28;97236;-74
2021/12/10 05:02:49;;;;;;;16.23;4.75;;;;;;;;;;5012419;28;97064;-74
2021/12/10 05:05:16;;;;;;;10.52;3.85;;;;;;;;;;5011300;28;99833;-73
2021/12/10 05:07:42;;;;;;;12.73;4.38;;;;;;;;;;5009327;28;97252;-73
2021/12/10 05:10:12;;;;;;;12.75;4.25;;;;;;;;;;5010782;28;95316;-74
2021/12/10 05:12:38;;;;;;;11.00;4.30;;;;;;;;;;5010359;28;97198;-74
2021/12/10 05:15:06;;;;;;;11.20;3.78;;;;;;;;;;5011588;28;97270;-74
2021/12/10 05:17:34;;;;;;;9.05;4.25;;;;;;;;;;4996361;28;95381;-74
2021/12/10 05:20:06;;;;;;;16.08;4.70;;;;;;;;;;5012236;28;96822;-74
2021/12/10 05:22:40;;;;;;;15.57;3.92;;;;;;;;;;4997933;28;97296;-74
2021/12/10 05:25:06;;;;;;;10.35;3.92;;;;;;;;;;4995745;28;95216;-74
2021/12/10 05:27:33;;;;;;;12.82;3.72;;;;;;;;;;4995542;28;99467;-74
2021/12/10 05:30:00;;;;;;;13.63;3.80;;;;;;;;;;5012446;28;95296;-74
2021/12/10 05:32:26;;;;;;;9.93;3.95;;;;;;;;;;5009969;28;96999;-74
2021/12/10 05:34:54;;;;;;;9.60;3.90;;;;;;;;;;5011631;28;97394;-74
2021/12/10 05:37:21;;;;;;;14.40;4.40;;;;;;;;;;5012151;28;95317;-74
2021/12/10 05:39:47;;;;;;;13.63;3.80;;;;;;;;;;5011053;28;96883;-74
2021/12/10 05:42:15;;;;;;;10.90;3.83;;;;;;;;;;5002084;28;97316;-74
2021/12/10 05:44:42;;;;;;;10.05;3.60;;;;;;;;;;5000980;28;95368;-74
2021/12/10 05:47:08;;;;;;;11.73;4.03;;;;;;;;;;5013805;28;96872;-73
2021/12/10 05:49:36;;;;;;;11.90;3.53;;;;;;;;;;5011174;28;95340;-74
2021/12/10 05:52:04;;;;;;;14.23;4.20;;;;;;;;;;5010466;28;97246;-74
2021/12/10 05:54:31;;;;;;;12.52;3.85;;;;;;;;;;5002193;28;97753;-75
2021/12/10 05:56:57;;;;;;;10.30;4.50;;;;;;;;;;5010234;28;96928;-74
2021/12/10 05:59:24;;;;;;;16.48;4.40;;;;;;;;;;5011492;28;96872;-73
2021/12/10 06:01:51;;;;;;;13.30;3.90;;;;;;;;;;5010553;28;97302;-74
2021/12/10 06:04:22;;;;;;;12.60;4.43;;;;;;;;;;5002209;28;95936;-73
2021/12/10 06:06:49;;;;;;;16.90;4.60;;;;;;;;;;5011185;28;97064;-74
2021/12/10 06:09:16;;;;;;;12.57;4.38;;;;;;;;;;5013661;28;95970;-74
2021/12/10 06:11:42;;;;;;;12.60;4.30;;;;;;;;;;5011778;28;96767;-74
2021/12/10 06:14:09;;;;;;;11.85;4.38;;;;;;;;;;5010478;28;97182;-74
2021/12/10 06:16:35;;;;;;;12.57;4.05;;;;;;;;;;5009580;28;96147;-74
2021/12/10 06:19:03;;;;;;;9.75;3.92;;;;;;;;;;5011403;28;96699;-74
2021/12/10 06:21:29;;;;;;;10.25;4.25;;;;;;;;;;5010541;28;97438;-74
2021/12/10 06:23:56;;;;;;;12.15;4.78;;;;;;;;;;5013638;28;95306;-74
2021/12/10 06:26:22;;;;;;;16.17;4.90;;;;;;;;;;5005988;28;97148;-74
2021/12/10 06:28:48;;;;;;;11.65;4.80;;;;;;;;;;5017420;28;97087;-74
2021/12/10 06:31:17;;;;;;;13.00;4.57;;;;;;;;;;5014533;28;96918;-74
2021/12/10 06:33:43;;;;;;;16.33;4.93;;;;;;;;;;5014520;28;97426;-74
2021/12/10 06:36:10;;;;;;;11.77;4.65;;;;;;;;;;5013002;28;95175;-74
2021/12/10 06:38:37;;;;;;;16.52;5.03;;;;;;;;;;5015021;28;96889;-74
2021/12/10 06:41:04;;;;;;;13.25;4.63;;;;;;;;;;5014695;28;97006;-75
2021/12/10 06:43:31;;;;;;;17.25;4.35;;;;;;;;;;5014281;28;95380;-74
2021/12/10 06:45:57;;;;;;;11.23;4.32;;;;;;;;;;5012902;28;96705;-74
2021/12/10 06:48:25;;;;;;;9.43;4.30;;;;;;;;;;5014077;28;97213;-74
2021/12/10 06:50:57;;;;;;;17.17;4.38;;;;;;;;;;5017604;28;95465;-74
2021/12/10 06:53:24;;;;;;;14.50;5.13;;;;;;;;;;5014063;28;97317;-74
2021/12/10 06:55:51;;;;;;;12.30;4.63;;;;;;;;;;5012909;28;95096;-74
2021/12/10 06:58:17;;;;;;;15.88;5.10;;;;;;;;;;5003725;28;96939;-74
2021/12/10 07:00:44;;;;;;;16.92;4.68;;;;;;;;;;5014202;28;97447;-74
2021/12/10 07:03:15;;;;;;;15.50;5.18;;;;;;;;;;5013958;28;95451;-74
2021/12/10 07:05:42;;;;;;;12.48;5.05;;;;;;;;;;5012762;28;98391;-74
2021/12/10 07:08:09;;;;;;;17.02;5.32;;;;;;;;;;5013242;28;97308;-74
2021/12/10 07:10:35;;;;;;;17.08;5.43;;;;;;;;;;5014168;28;95279;-74
2021/12/10 07:13:03;;;;;;;19.48;5.18;;;;;;;;;;5014979;28;97310;-74
2021/12/10 07:15:30;;;;;;;16.40;5.85;;;;;;;;;;5013275;28;95894;-74
2021/12/10 07:17:56;;;;;;;14.30;4.72;;;;;;;;;;5012853;28;96871;-74
2021/12/10 07:20:23;;;;;;;15.00;5.05;;;;;;;;;;5012698;28;97416;-74
2021/12/10 07:22:50;;;;;;;13.43;5.03;;;;;;;;;;5013533;28;95036;-74
2021/12/10 15:55:47;;;;;;;18.98;8.95;;;;;;;;;;5042129;27;95291;-77
2021/12/10 15:58:22;;;;;;;21.67;8.90;;;;;;;;;;5032088;27;97263;-77
2021/12/10 16:00:49;;;;;;;19.85;7.53;;;;;;;;;;5028993;27;95216;-78
2021/12/10 16:03:23;;;;;;;16.75;7.05;;;;;;;;;;5041372;27;97386;-77
2021/12/10 16:05:50;;;;;;;22.45;7.68;;;;;;;;;;5031600;27;97405;-78
2021/12/10 16:08:16;;;;;;;15.13;7.70;;;;;;;;;;5029368;27;95372;-76
2021/12/10 16:10:45;;;;;;;15.15;7.40;;;;;;;;;;5028924;28;96743;-76
2021/12/10 16:13:17;;;;;;;20.27;7.95;;;;;;;;;;5028532;27;97108;-76
2021/12/10 16:15:43;;;;;;;17.92;7.78;;;;;;;;;;5037748;27;95346;-76
2021/12/10 16:18:10;;;;;;;20.73;7.45;;;;;;;;;;5025493;27;97451;-77
2021/12/10 16:20:47;;;;;;;15.77;6.93;;;;;;;;;;5028486;27;95537;-77
2021/12/10 16:23:18;;;;;;;15.68;6.60;;;;;;;;;;5029164;27;95833;-77
2021/12/10 16:25:45;;;;;;;14.02;6.60;;;;;;;;;;5028779;27;95253;-77
2021/12/10 16:28:12;;;;;;;18.48;7.38;;;;;;;;;;5037428;27;96323;-81
2021/12/10 16:30:47;;;;;;;19.60;8.00;;;;;;;;;;5039711;27;96655;-76
2021/12/10 16:33:14;;;;;;;19.25;7.50;;;;;;;;;;5028007;28;97314;-76
2021/12/10 16:35:42;;;;;;;21.80;7.32;;;;;;;;;;5031480;27;95239;-76
2021/12/10 16:38:10;;;;;;;17.95;7.40;;;;;;;;;;5039677;27;96810;-75
2021/12/10 16:40:39;;;;;;;20.70;8.40;;;;;;;;;;5043609;27;95155;-76
2021/12/10 16:43:08;;;;;;;17.75;8.60;;;;;;;;;;5029345;27;96827;-76
2021/12/10 16:45:35;;;;;;;16.33;7.07;;;;;;;;;;5028457;27;98419;-77
2021/12/10 16:48:05;;;;;;;15.73;6.75;;;;;;;;;;5032640;27;96646;-77
2021/12/10 16:50:34;;;;;;;16.90;8.40;;;;;;;;;;5012489;27;96846;-76
2021/12/10 16:53:03;;;;;;;25.15;10.05;;;;;;;;;;5007583;28;97272;-77
2021/12/10 16:55:32;;;;;;;19.02;9.20;;;;;;;;;;5026793;27;95380;-77
2021/12/10 16:58:01;;;;;;;21.35;10.73;;;;;;;;;;5033913;27;96569;-75
2021/12/10 17:00:29;;;;;;;23.98;10.73;;;;;;;;;;5036931;27;97228;-76
2021/12/10 17:03:13;;;;;;;22.92;10.75;;;;;;;;;;5028935;27;96233;-76
2021/12/10 17:05:40;;;;;;;28.13;11.68;;;;;;;;;;5053677;27;97503;-76
2021/12/10 17:08:09;;;;;;;21.15;9.88;;;;;;;;;;5035224;27;97004;-76
2021/12/10 17:10:40;;;;;;;17.85;8.50;;;;;;;;;;5018573;27;96796;-76
2021/12/10 17:13:12;;;;;;;15.80;8.52;;;;;;;;;;5018186;27;97325;-76
2021/12/10 17:15:39;;;;;;;19.08;9.77;;;;;;;;;;5029313;27;96773;-76
2021/12/10 17:18:07;;;;;;;21.88;9.65;;;;;;;;;;5028774;27;97079;-75
2021/12/10 17:20:36;;;;;;;56.03;32.28;;;;;;;;;;5038673;27;97489;-76
2021/12/10 17:23:05;;;;;;;30.60;14.30;;;;;;;;;;5034825;27;95383;-77
2021/12/10 17:25:33;;;;;;;75.55;44.30;;;;;;;;;;5021179;27;97286;-75
2021/12/10 17:28:02;;;;;;;21.38;9.40;;;;;;;;;;5038031;27;95303;-76
2021/12/10 17:30:30;;;;;;;17.05;8.90;;;;;;;;;;5021066;27;96906;-76
2021/12/10 17:32:59;;;;;;;19.42;9.00;;;;;;;;;;5038923;27;97444;-74
2021/12/10 17:35:32;;;;;;;19.08;7.30;;;;;;;;;;5029684;27;95378;-74
2021/12/10 17:38:03;;;;;;;18.38;7.90;;;;;;;;;;5029203;27;97131;-75
2021/12/10 17:40:33;;;;;;;24.23;8.07;;;;;;;;;;5019712;28;97391;-75
2021/12/10 17:43:02;;;;;;;21.85;8.77;;;;;;;;;;5021627;28;95234;-74
2021/12/10 17:45:31;;;;;;;24.63;9.88;;;;;;;;;;5035431;27;96878;-76
2021/12/10 17:47:58;;;;;;;17.42;8.82;;;;;;;;;;5000912;28;95386;-75
2021/12/10 17:50:28;;;;;;;29.98;14.45;;;;;;;;;;5015522;27;96901;-75
2021/12/10 17:52:55;;;;;;;23.25;12.32;;;;;;;;;;5021132;28;97383;-75
2021/12/10 17:55:24;;;;;;;28.83;12.88;;;;;;;;;;5023153;27;95281;-75
2021/12/10 17:57:52;;;;;;;35.20;13.80;;;;;;;;;;5018377;27;96737;-75
2021/12/10 18:00:26;;;;;;;30.13;15.40;;;;;;;;;;4999110;27;97930;-75
2021/12/10 18:03:05;;;;;;;23.33;12.75;;;;;;;;;;5023967;27;95976;-74
2021/12/10 18:05:32;;;;;;;24.42;12.20;;;;;;;;;;5015769;28;96698;-76
2021/12/10 18:08:03;;;;;;;32.17;13.93;;;;;;;;;;5028608;27;96303;-75
2021/12/10 18:10:31;;;;;;;24.02;13.32;;;;;;;;;;5027205;27;96490;-76
2021/12/10 18:12:58;;;;;;;33.25;17.00;;;;;;;;;;5019485;27;97311;-75
2021/12/10 18:15:29;;;;;;;31.20;16.00;;;;;;;;;;5022148;28;95410;-74
2021/12/10 18:18:01;;;;;;;33.28;16.23;;;;;;;;;;5032525;27;96838;-75
2021/12/10 18:20:48;;;;;;;25.52;11.85;;;;;;;;;;5031028;27;97704;-75
2021/12/10 18:23:16;;;;;;;35.22;13.65;;;;;;;;;;5031092;27;95993;-75
2021/12/10 18:25:45;;;;;;;29.27;13.77;;;;;;;;;;5026108;27;97214;-75
2021/12/10 18:28:16;;;;;;;26.23;12.23;;;;;;;;;;5034077;27;97404;-75
2021/12/10 18:30:42;;;;;;;31.80;13.43;;;;;;;;;;5013630;27;96783;-76
2021/12/10 18:33:10;;;;;;;20.40;12.18;;;;;;;;;;5017395;27;96506;-76
2021/12/10 18:35:39;;;;;;;18.73;11.30;;;;;;;;;;5032950;27;95565;-76
2021/12/10 18:38:07;;;;;;;25.23;11.45;;;;;;;;;;5031544;27;96744;-74
2021/12/10 18:40:35;;;;;;;20.50;10.25;;;;;;;;;;5021796;28;97393;-75
2021/12/10 18:43:05;;;;;;;22.30;11.32;;;;;;;;;;5031393;27;95558;-75
2021/12/10 18:45:38;;;;;;;22.17;10.82;;;;;;;;;;5025074;27;96634;-75
2021/12/10 18:48:06;;;;;;;21.10;11.27;;;;;;;;;;5025551;27;97297;-78
2021/12/10 18:50:36;;;;;;;33.92;18.17;;;;;;;;;;5023739;27;96743;-76
2021/12/10 18:53:04;;;;;;;31.08;16.38;;;;;;;;;;5015312;28;97450;-76
2021/12/10 18:55:33;;;;;;;40.63;21.92;;;;;;;;;;5023151;27;96697;-76
2021/12/10 18:58:00;;;;;;;32.67;18.20;;;;;;;;;;5017440;28;97104;-75
2021/12/10 19:00:37;;;;;;;39.63;20.10;;;;;;;;;;5016792;27;97283;-76
2021/12/10 19:03:06;;;;;;;38.72;18.75;;;;;;;;;;5011435;27;95537;-76
2021/12/10 19:05:39;;;;;;;33.05;17.80;;;;;;;;;;5019012;27;96748;-76
2021/12/10 19:08:11;;;;;;;24.98;15.65;;;;;;;;;;5020066;28;97810;-74
2021/12/10 19:10:39;;;;;;;32.75;18.27;;;;;;;;;;5014483;28;95412;-76
2021/12/10 19:13:30;;;;;;;27.30;15.77;;;;;;;;;;5013206;28;96733;-75
2021/12/10 19:15:59;;;;;;;34.85;15.43;;;;;;;;;;5019041;27;96035;-74
2021/12/10 19:18:25;;;;;;;25.92;14.20;;;;;;;;;;5015912;27;96977;-76
2021/12/10 19:21:00;;;;;;;23.10;14.13;;;;;;;;;;5039718;27;97597;-76
2021/12/10 19:23:33;;;;;;;24.60;13.88;;;;;;;;;;5014042;27;95525;-76
2021/12/10 19:26:03;;;;;;;29.65;13.98;;;;;;;;;;5019543;27;96615;-76
2021/12/10 19:28:35;;;;;;;29.15;15.73;;;;;;;;;;5021134;27;99473;-76
2021/12/10 19:31:09;;;;;;;28.70;15.25;;;;;;;;;;5025405;27;95308;-77
2021/12/10 19:33:35;;;;;;;29.58;15.60;;;;;;;;;;5011758;28;96783;-76
2021/12/10 19:36:06;;;;;;;30.80;16.55;;;;;;;;;;5019761;27;97883;-77
2021/12/10 19:38:35;;;;;;;27.70;16.50;;;;;;;;;;5014296;27;96802;-74
2021/12/10 19:41:06;;;;;;;43.10;22.13;;;;;;;;;;5039578;27;97281;-76
2021/12/10 19:43:36;;;;;;;39.08;20.52;;;;;;;;;;5044798;27;95312;-75
2021/12/10 19:46:14;;;;;;;49.88;23.50;;;;;;;;;;5009694;28;96753;-76
2021/12/10 19:48:51;;;;;;;45.78;25.98;;;;;;;;;;5010721;27;97699;-76
2021/12/10 19:51:25;;;;;;;35.75;20.13;;;;;;;;;;4995263;28;95340;-76
2021/12/10 19:54:00;;;;;;;37.20;20.92;;;;;;;;;;5021338;27;98684;-75
2021/12/10 19:56:33;;;;;;;34.67;16.65;;;;;;;;;;4995892;28;98485;-76
2021/12/10 19:58:59;;;;;;;25.75;15.32;;;;;;;;;;5032190;27;95378;-77
2021/12/10 20:01:28;;;;;;;24.52;14.68;;;;;;;;;;5015105;27;98173;-75
2021/12/10 20:03:56;;;;;;;27.73;13.95;;;;;;;;;;5039218;27;95875;-76
2021/12/10 20:06:28;;;;;;;25.50;14.95;;;;;;;;;;5032942;27;96385;-76
2021/12/10 20:09:19;;;;;;;24.98;13.77;;;;;;;;;;5029538;28;99849;-76
2021/12/10 20:11:47;;;;;;;24.67;13.38;;;;;;;;;;5030564;27;95289;-76
2021/12/10 20:14:16;;;;;;;25.67;14.25;;;;;;;;;;5040763;27;97025;-76
2021/12/10 20:16:54;;;;;;;25.48;14.02;;;;;;;;;;5043019;27;96639;-76
2021/12/10 20:19:23;;;;;;;31.20;14.85;;;;;;;;;;5014924;27;95356;-77
2021/12/10 20:21:50;;;;;;;35.33;17.23;;;;;;;;;;5031466;27;97511;-76
2021/12/10 20:24:21;;;;;;;39.05;19.30;;;;;;;;;;5030510;27;96524;-76
2021/12/10 20:26:50;;;;;;;36.08;19.50;;;;;;;;;;5022373;27;96889;-76
2021/12/10 20:29:37;;;;;;;39.25;20.85;;;;;;;;;;5025278;27;97449;-76
2021/12/10 20:32:14;;;;;;;39.88;19.50;;;;;;;;;;5017640;27;95443;-75
2021/12/10 20:34:44;;;;;;;29.42;17.35;;;;;;;;;;5015474;27;96480;-78
2021/12/10 20:37:21;;;;;;;30.38;15.73;;;;;;;;;;5027992;27;97069;-75
2021/12/10 20:39:50;;;;;;;31.70;17.45;;;;;;;;;;5021692;27;96224;-76
2021/12/10 20:42:19;;;;;;;32.08;17.83;;;;;;;;;;5035990;27;96772;-76
2021/12/10 20:44:51;;;;;;;34.78;17.08;;;;;;;;;;5030836;28;95966;-76
2021/12/10 20:47:20;;;;;;;26.48;16.27;;;;;;;;;;5036496;27;96309;-77
2021/12/10 20:49:58;;;;;;;31.08;15.75;;;;;;;;;;5053798;27;97572;-76
2021/12/10 20:52:33;;;;;;;29.77;15.43;;;;;;;;;;5033766;27;95483;-76
2021/12/10 20:55:02;;;;;;;32.30;16.92;;;;;;;;;;5030701;27;97077;-76
2021/12/10 20:57:34;;;;;;;26.95;15.85;;;;;;;;;;5030386;27;96138;-76
2021/12/10 21:00:07;;;;;;;27.70;15.10;;;;;;;;;;5034130;28;95512;-78
2021/12/10 21:02:43;;;;;;;30.23;14.65;;;;;;;;;;5024540;27;96724;-76
2021/12/10 21:05:33;;;;;;;25.00;14.40;;;;;;;;;;5032788;27;97324;-76
2021/12/10 21:08:04;;;;;;;24.95;14.65;;;;;;;;;;5032537;28;97088;-76
2021/12/10 21:10:40;;;;;;;27.65;15.05;;;;;;;;;;5028188;27;97358;-77
2021/12/10 21:13:07;;;;;;;28.67;14.38;;;;;;;;;;5046148;27;95418;-76
2021/12/10 21:15:34;;;;;;;35.53;19.73;;;;;;;;;;5048405;27;96848;-76
2021/12/10 21:18:07;;;;;;;89.60;40.33;;;;;;;;;;5052937;27;97921;-76
2021/12/10 21:20:36;;;;;;;71.32;32.25;;;;;;;;;;5034999;27;96638;-77
2021/12/10 21:23:06;;;;;;;61.35;29.25;;;;;;;;;;5048480;27;96840;-76
2021/12/10 21:25:39;;;;;;;39.20;19.63;;;;;;;;;;5046662;27;97484;-76
2021/12/10 21:28:16;;;;;;;35.10;18.08;;;;;;;;;;5043925;27;96709;-75
2021/12/10 21:30:46;;;;;;;31.00;16.00;;;;;;;;;;5034099;28;97388;-76
2021/12/10 21:33:23;;;;;;;30.95;15.80;;;;;;;;;;5033910;27;95314;-76
2021/12/10 21:35:53;;;;;;;26.60;14.55;;;;;;;;;;5035190;27;96885;-77
2021/12/10 21:38:31;;;;;;;28.05;13.65;;;;;;;;;;5038752;27;97892;-77
2021/12/10 21:40:59;;;;;;;31.25;14.48;;;;;;;;;;5052236;27;96611;-75
2021/12/10 21:43:46;;;;;;;28.20;13.45;;;;;;;;;;5043758;27;96505;-74
2021/12/10 21:46:21;;;;;;;23.70;12.48;;;;;;;;;;5035538;27;96491;-75
2021/12/10 21:48:53;;;;;;;23.38;11.80;;;;;;;;;;5053381;27;96052;-76
2021/12/10 21:51:32;;;;;;;29.53;12.63;;;;;;;;;;5041566;27;95985;-78
2021/12/10 21:54:07;;;;;;;24.30;11.98;;;;;;;;;;5032920;27;95338;-76
2021/12/10 21:56:48;;;;;;;21.38;11.38;;;;;;;;;;5034030;27;95564;-76
2021/12/10 21:59:20;;;;;;;20.23;11.65;;;;;;;;;;5032022;28;96756;-76
2021/12/10 22:01:58;;;;;;;24.35;11.68;;;;;;;;;;5045186;27;95531;-76
2021/12/10 22:04:32;;;;;;;23.70;11.80;;;;;;;;;;5039185;27;97125;-76
2021/12/10 22:07:12;;;;;;;24.25;11.75;;;;;;;;;;5042813;27;96638;-76
2021/12/10 22:09:44;;;;;;;26.77;13.98;;;;;;;;;;5015283;28;95467;-76
2021/12/10 22:12:10;;;;;;;22.47;13.20;;;;;;;;;;5031055;27;96782;-76
2021/12/10 22:14:54;;;;;;;27.23;15.07;;;;;;;;;;5047894;27;97426;-80
2021/12/10 22:17:22;;;;;;;28.35;15.43;;;;;;;;;;5025081;27;96907;-77
2021/12/10 22:20:12;;;;;;;28.48;15.52;;;;;;;;;;5018842;27;98983;-79
2021/12/10 22:22:42;;;;;;;30.88;16.38;;;;;;;;;;5033751;28;95421;-78
2021/12/10 22:25:20;;;;;;;34.92;15.57;;;;;;;;;;5033291;27;96736;-76
2021/12/10 22:27:48;;;;;;;27.98;15.68;;;;;;;;;;5053077;27;95183;-77
2021/12/10 22:30:30;;;;;;;26.35;15.63;;;;;;;;;;5051970;27;95077;-77
2021/12/10 22:33:03;;;;;;;26.48;16.88;;;;;;;;;;5053334;27;98144;-76
2021/12/10 22:35:37;;;;;;;27.10;15.75;;;;;;;;;;5056882;27;98145;-76
2021/12/10 22:38:15;;;;;;;27.83;15.27;;;;;;;;;;5052974;27;96819;-75
2021/12/10 22:40:51;;;;;;;30.92;16.30;;;;;;;;;;5051394;27;97000;-77
2021/12/10 22:43:25;;;;;;;32.25;15.93;;;;;;;;;;5045737;27;95229;-75
2021/12/10 22:45:58;;;;;;;27.73;14.82;;;;;;;;;;5028222;27;95844;-76
2021/12/10 22:48:32;;;;;;;26.65;15.50;;;;;;;;;;5033379;27;97100;-78
2021/12/10 22:51:01;;;;;;;33.58;15.23;;;;;;;;;;5036961;27;95279;-76
2021/12/10 22:53:32;;;;;;;32.03;16.42;;;;;;;;;;5051637;27;97262;-77
2021/12/10 22:56:00;;;;;;;30.77;14.40;;;;;;;;;;5035518;27;96776;-77
2021/12/10 22:58:32;;;;;;;28.92;15.60;;;;;;;;;;5036046;27;95960;-77
2021/12/10 23:00:58;;;;;;;41.13;25.47;;;;;;;;;;5032233;28;97296;-77
2021/12/10 23:03:33;;;;;;;49.50;29.33;;;;;;;;;;5036618;27;96634;-75
2021/12/10 23:06:03;;;;;;;31.13;16.90;;;;;;;;;;5033913;27;95811;-76
2021/12/10 23:08:32;;;;;;;29.48;14.73;;;;;;;;;;5032430;27;97430;-76
2021/12/10 23:11:19;;;;;;;25.73;14.25;;;;;;;;;;5041152;27;95305;-75
2021/12/10 23:13:48;;;;;;;25.90;13.98;;;;;;;;;;5051879;27;96894;-76
2021/12/10 23:16:20;;;;;;;26.98;13.63;;;;;;;;;;5030786;27;97443;-76